createdAt,value
2018-06-10T00:00:34.559Z,23.90
2018-06-10T00:03:05.638Z,21.83
2018-06-10T00:05:36.404Z,21.20
2018-06-10T00:08:11.020Z,21.20
2018-06-10T00:12:51.218Z,28.43
2018-06-10T00:15:21.590Z,29.20
2018-06-10T00:17:51.774Z,22.30
2018-06-10T00:20:21.654Z,20.27
2018-06-10T00:22:52.065Z,28.03
2018-06-10T00:25:21.976Z,26.90
2018-06-10T00:27:51.885Z,20.27
2018-06-10T00:30:21.822Z,20.00
2018-06-10T00:32:51.628Z,15.40
2018-06-10T00:35:21.423Z,15.47
2018-06-10T00:37:52.295Z,18.53
2018-06-10T00:40:23.122Z,20.60
2018-06-10T00:42:53.183Z,18.93
2018-06-10T00:45:24.209Z,17.73
2018-06-10T00:47:54.233Z,18.67
2018-06-10T00:50:24.545Z,19.23
2018-06-10T00:52:54.742Z,24.60
2018-06-10T00:55:26.931Z,22.20
2018-06-10T00:57:57.068Z,17.27
2018-06-10T01:00:27.213Z,12.13
2018-06-10T01:02:58.202Z,8.43
2018-06-10T01:05:28.495Z,8.37
2018-06-10T01:07:59.601Z,6.73
2018-06-10T01:10:30.173Z,6.47
2018-06-10T01:13:01.004Z,6.13
2018-06-10T01:15:31.735Z,7.23
2018-06-10T01:18:01.938Z,8.00
2018-06-10T01:20:31.928Z,9.93
2018-06-10T01:23:02.075Z,11.00
2018-06-10T01:25:33.324Z,10.60
2018-06-10T01:28:03.475Z,10.60
2018-06-10T01:30:34.008Z,10.10
2018-06-10T01:33:04.210Z,9.30
2018-06-10T01:35:34.381Z,10.50
2018-06-10T01:38:05.320Z,10.00
2018-06-10T01:40:35.633Z,9.73
2018-06-10T01:43:05.704Z,9.93
2018-06-10T01:45:36.175Z,9.53
2018-06-10T01:48:06.394Z,9.43
2018-06-10T01:50:38.451Z,10.00
2018-06-10T01:53:08.575Z,9.57
2018-06-10T01:55:38.790Z,8.37
2018-06-10T01:58:09.132Z,9.50
2018-06-10T02:00:40.140Z,8.23
2018-06-10T02:03:10.582Z,8.83
2018-06-10T02:05:41.237Z,10.87
2018-06-10T02:08:11.309Z,8.70
2018-06-10T02:10:41.887Z,8.07
2018-06-10T02:13:12.073Z,9.90
2018-06-10T02:15:42.209Z,9.20
2018-06-10T02:18:12.177Z,10.40
2018-06-10T02:20:42.627Z,9.17
2018-06-10T02:23:12.984Z,10.20
2018-06-10T02:25:43.335Z,9.60
2018-06-10T02:28:13.635Z,9.73
2018-06-10T02:30:43.964Z,10.17
2018-06-10T02:33:14.592Z,11.37
2018-06-10T02:35:44.648Z,9.27
2018-06-10T02:38:14.857Z,10.20
2018-06-10T02:40:45.501Z,10.10
2018-06-10T02:43:16.131Z,11.30
2018-06-10T02:45:46.591Z,11.40
2018-06-10T02:48:16.642Z,11.30
2018-06-10T02:50:47.323Z,11.00
2018-06-10T02:53:17.687Z,12.30
2018-06-10T02:55:47.745Z,12.00
2018-06-10T02:58:17.821Z,11.70
2018-06-10T03:00:47.989Z,11.77
2018-06-10T03:03:17.811Z,11.73
2018-06-10T03:05:48.457Z,11.20
2018-06-10T03:08:18.663Z,12.60
2018-06-10T03:10:49.324Z,10.77
2018-06-10T03:13:21.184Z,11.37
2018-06-10T03:15:51.612Z,12.07
2018-06-10T03:18:22.126Z,10.57
2018-06-10T03:20:52.627Z,10.73
2018-06-10T03:23:22.709Z,12.10
2018-06-10T03:25:53.213Z,13.20
2018-06-10T03:28:23.157Z,12.80
2018-06-10T03:30:53.723Z,13.00
2018-06-10T03:33:23.839Z,12.27
2018-06-10T03:35:54.107Z,12.27
2018-06-10T03:38:24.647Z,12.30
2018-06-10T03:40:55.952Z,14.10
2018-06-10T03:43:26.381Z,13.90
2018-06-10T03:45:57.085Z,12.73
2018-06-10T03:48:27.773Z,14.10
2018-06-10T03:51:02.539Z,14.07
2018-06-10T03:53:34.316Z,14.33
2018-06-10T03:56:04.667Z,12.30
2018-06-10T03:58:35.756Z,13.63
2018-06-10T04:01:06.026Z,13.10
2018-06-10T04:03:37.498Z,12.43
2018-06-10T04:06:07.784Z,13.13
2018-06-10T04:08:39.436Z,13.90
2018-06-10T04:11:12.272Z,14.17
2018-06-10T04:13:42.910Z,12.83
2018-06-10T04:16:14.598Z,14.50
2018-06-10T04:18:44.959Z,15.27
2018-06-10T04:21:17.687Z,17.30
2018-06-10T04:23:49.097Z,20.97
2018-06-10T04:26:18.975Z,21.53
2018-06-10T04:28:48.996Z,22.00
2018-06-10T04:31:19.041Z,20.10
2018-06-10T04:33:49.358Z,20.13
2018-06-10T04:36:19.463Z,20.60
2018-06-10T04:38:49.251Z,20.87
2018-06-10T04:41:19.691Z,20.77
2018-06-10T04:43:49.589Z,21.13
2018-06-10T04:46:19.591Z,21.40
2018-06-10T04:48:49.382Z,20.60
2018-06-10T04:51:20.594Z,23.70
2018-06-10T04:53:50.700Z,24.23
2018-06-10T04:56:20.623Z,24.40
2018-06-10T04:58:50.776Z,25.07
2018-06-10T05:01:20.733Z,26.77
2018-06-10T05:03:50.643Z,26.50
2018-06-10T05:06:20.754Z,26.70
2018-06-10T05:08:50.725Z,27.83
2018-06-10T05:11:21.135Z,26.60
2018-06-10T05:13:51.166Z,26.40
2018-06-10T05:16:26.464Z,25.90
2018-06-10T05:18:57.183Z,27.33
2018-06-10T05:21:28.058Z,27.00
2018-06-10T05:24:07.277Z,32.50
2018-06-10T05:26:48.471Z,30.70
2018-06-10T05:29:19.686Z,29.03
2018-06-10T05:31:50.716Z,28.37
2018-06-10T05:34:20.685Z,32.00
2018-06-10T05:36:50.872Z,29.43
2018-06-10T05:42:34.212Z,30.60
2018-06-10T05:48:49.996Z,28.57
2018-06-10T05:51:21.203Z,29.50
2018-06-10T06:20:19.200Z,31.30
2018-06-10T06:22:49.272Z,33.50
2018-06-10T06:26:26.594Z,37.57
2018-06-10T06:28:56.860Z,34.97
2018-06-10T06:31:28.406Z,35.80
2018-06-10T06:34:25.549Z,35.60
2018-06-10T06:57:27.129Z,34.53
2018-06-10T12:48:35.954Z,51.45
2018-06-10T12:51:08.385Z,49.03
2018-06-10T12:56:48.265Z,43.67
2018-06-10T12:59:18.588Z,42.90
2018-06-10T13:02:07.144Z,40.30
2018-06-10T13:04:37.700Z,40.33
2018-06-10T13:07:08.619Z,38.77
2018-06-10T13:10:14.806Z,40.10
2018-06-10T13:12:50.249Z,41.93
2018-06-10T13:15:36.273Z,39.60
2018-06-10T13:18:08.507Z,42.40
2018-06-10T13:23:21.932Z,40.97
2018-06-10T13:25:52.852Z,40.67
2018-06-10T13:28:34.956Z,41.37
2018-06-10T13:31:06.706Z,41.67
2018-06-10T13:33:37.838Z,35.83
2018-06-10T13:36:08.163Z,41.23
2018-06-10T13:38:39.394Z,38.90
2018-06-10T13:41:12.487Z,41.00
2018-06-10T13:43:52.170Z,38.13
2018-06-10T13:46:28.756Z,38.63
2018-06-10T13:49:00.252Z,34.23
2018-06-10T13:51:38.539Z,35.00
2018-06-10T13:54:10.411Z,35.23
2018-06-10T13:56:45.920Z,35.20
2018-06-10T14:02:15.012Z,32.80
2018-06-10T14:04:44.778Z,31.93
2018-06-10T14:10:45.296Z,31.53
2018-06-10T14:13:27.086Z,31.47
2018-06-10T14:16:01.712Z,31.17
2018-06-10T14:18:33.550Z,28.97
2018-06-10T14:21:03.529Z,31.20
2018-06-10T14:23:33.801Z,31.70
2018-06-10T14:26:03.660Z,30.67
2018-06-10T14:28:33.542Z,28.77
2018-06-10T14:31:03.619Z,27.03
2018-06-10T14:33:34.447Z,26.40
2018-06-10T14:36:04.612Z,24.60
2018-06-10T14:38:34.854Z,23.20
2018-06-10T14:41:04.708Z,22.33
2018-06-10T14:43:34.640Z,21.73
2018-06-10T14:46:04.723Z,20.33
2018-06-10T14:48:34.576Z,19.23
2018-06-10T14:51:04.586Z,19.03
2018-06-10T14:53:35.115Z,19.07
2018-06-10T14:56:05.139Z,20.63
2018-06-10T14:58:35.188Z,20.33
2018-06-10T15:01:05.408Z,19.23
2018-06-10T15:03:35.264Z,19.70
2018-06-10T15:06:06.507Z,18.70
2018-06-10T15:08:37.026Z,21.03
2018-06-10T15:11:07.970Z,20.63
2018-06-10T15:13:39.719Z,19.50
2018-06-10T15:16:10.134Z,19.57
2018-06-10T15:18:42.219Z,18.53
2018-06-10T15:21:12.494Z,17.40
2018-06-10T15:23:42.955Z,19.23
2018-06-10T15:26:13.405Z,18.43
2018-06-10T15:28:47.432Z,18.00
2018-06-10T15:31:21.093Z,17.12
2018-06-10T15:34:05.470Z,16.00
2018-06-10T15:36:36.866Z,17.30
2018-06-10T15:39:10.472Z,17.93
2018-06-10T15:41:45.729Z,17.90
2018-06-10T15:44:16.616Z,17.83
2018-06-10T15:46:47.102Z,15.90
2018-06-10T15:49:22.050Z,16.37
2018-06-10T15:51:58.731Z,17.80
2018-06-10T15:54:31.796Z,17.30
2018-06-10T15:57:03.543Z,17.30
2018-06-10T15:59:34.387Z,17.63
2018-06-10T16:02:04.926Z,17.73
2018-06-10T16:04:37.359Z,18.13
2018-06-10T16:07:10.409Z,17.60
2018-06-10T16:09:44.004Z,17.30
2018-06-10T16:12:22.222Z,17.00
2018-06-10T16:14:55.150Z,17.57
2018-06-10T16:17:31.576Z,17.63
2018-06-10T16:20:02.051Z,16.00
2018-06-10T16:22:32.443Z,17.50
2018-06-10T16:25:02.783Z,18.03
2018-06-10T16:27:33.400Z,18.07
2018-06-10T16:30:03.252Z,16.30
2018-06-10T16:32:33.507Z,17.97
2018-06-10T16:35:03.669Z,16.93
2018-06-10T16:37:33.619Z,17.60
2018-06-10T16:40:03.751Z,17.00
2018-06-10T16:42:33.856Z,17.27
2018-06-10T16:45:03.795Z,16.53
2018-06-10T16:47:33.791Z,16.87
2018-06-10T16:50:03.909Z,16.40
2018-06-10T16:52:34.116Z,17.40
2018-06-10T16:55:05.469Z,15.93
2018-06-10T16:57:36.965Z,14.80
2018-06-10T17:00:09.552Z,13.97
2018-06-10T17:02:42.956Z,15.03
2018-06-10T17:05:15.917Z,14.77
2018-06-10T17:07:54.821Z,15.20
2018-06-10T17:10:28.325Z,14.27
2018-06-10T17:13:01.989Z,15.70
2018-06-10T17:15:32.451Z,16.57
2018-06-10T17:18:04.500Z,16.43
2018-06-10T17:20:37.039Z,15.27
2018-06-10T17:23:11.515Z,15.17
2018-06-10T17:25:54.147Z,15.70
2018-06-10T17:29:04.590Z,15.50
2018-06-10T17:34:44.058Z,15.23
2018-06-10T17:37:44.394Z,13.73
2018-06-10T17:40:15.262Z,13.37
2018-06-10T17:43:00.199Z,12.80
2018-06-10T17:45:45.828Z,13.63
2018-06-10T17:52:53.063Z,13.90
2018-06-10T17:57:10.288Z,14.27
2018-06-10T17:59:46.123Z,14.30
2018-06-10T18:02:25.559Z,13.77
2018-06-10T18:04:56.309Z,13.63
2018-06-10T18:07:54.477Z,13.07
2018-06-10T18:10:27.445Z,13.83
2018-06-10T18:12:58.248Z,14.33
2018-06-10T18:15:30.368Z,15.67
2018-06-10T18:18:02.984Z,16.07
2018-06-10T18:21:25.878Z,14.83
2018-06-10T18:27:25.531Z,15.67
2018-06-10T18:29:55.770Z,14.87
2018-06-10T18:32:32.681Z,15.60
2018-06-10T18:35:08.594Z,15.97
2018-06-10T18:37:40.273Z,52.50
2018-06-10T18:40:16.299Z,42.47
2018-06-10T18:42:47.303Z,19.40
2018-06-10T18:45:17.818Z,16.80
2018-06-10T18:47:47.914Z,16.40
2018-06-10T18:50:17.871Z,15.50
2018-06-10T18:53:14.158Z,13.97
2018-06-10T18:59:01.593Z,16.13
2018-06-10T19:01:52.428Z,15.70
2018-06-10T19:04:30.143Z,16.77
2018-06-10T19:07:00.908Z,16.27
2018-06-10T19:09:42.574Z,14.87
2018-06-10T19:12:18.736Z,15.00
2018-06-10T19:14:49.549Z,15.60
2018-06-10T19:17:20.089Z,15.27
2018-06-10T19:19:58.056Z,15.70
2018-06-10T19:22:29.532Z,15.13
2018-06-10T19:24:59.704Z,14.90
2018-06-10T19:27:31.023Z,14.30
2018-06-10T19:30:01.318Z,14.60
2018-06-10T19:32:33.268Z,15.03
2018-06-10T19:35:13.159Z,14.33
2018-06-10T19:37:57.978Z,14.70
2018-06-10T19:40:31.071Z,15.17
2018-06-10T19:43:02.318Z,14.33
2018-06-10T19:45:32.559Z,14.33
2018-06-10T19:48:08.984Z,14.93
2018-06-10T19:50:55.024Z,14.30
2018-06-10T19:53:30.993Z,13.73
2018-06-10T19:56:01.248Z,13.20
2018-06-10T19:58:31.241Z,13.33
2018-06-10T20:01:01.120Z,15.03
2018-06-10T20:03:31.077Z,13.33
2018-06-10T20:06:01.409Z,15.27
2018-06-10T20:08:31.470Z,13.40
2018-06-10T20:11:01.969Z,14.63
2018-06-10T20:13:32.017Z,14.10
2018-06-10T20:16:01.959Z,13.87
2018-06-10T20:21:19.533Z,14.13
2018-06-10T20:24:00.183Z,15.60
2018-06-10T20:26:31.010Z,14.73
2018-06-10T20:29:00.876Z,15.53
2018-06-10T20:31:31.036Z,17.57
2018-06-10T20:34:01.993Z,16.63
2018-06-10T20:36:31.893Z,14.00
2018-06-10T20:39:01.961Z,13.90
2018-06-10T20:41:32.019Z,17.10
2018-06-10T20:44:01.847Z,15.63
2018-06-10T20:46:36.575Z,16.50
2018-06-10T20:49:14.058Z,15.63
2018-06-10T20:51:49.015Z,16.33
2018-06-10T20:54:20.290Z,17.03
2018-06-10T20:56:50.680Z,16.97
2018-06-10T20:59:22.527Z,17.20
2018-06-10T21:01:53.548Z,17.27
2018-06-10T21:04:27.356Z,16.50
2018-06-10T21:06:57.964Z,17.50
2018-06-10T21:09:27.995Z,19.00
2018-06-10T21:11:57.786Z,17.47
2018-06-10T21:14:27.750Z,17.90
2018-06-10T21:17:07.596Z,19.73
2018-06-10T21:19:38.135Z,18.53
2018-06-10T21:22:12.740Z,19.43
2018-06-10T21:27:25.529Z,18.73
2018-06-10T21:29:55.703Z,20.50
2018-06-10T21:32:25.750Z,19.00
2018-06-10T21:34:55.675Z,20.37
2018-06-10T21:37:25.899Z,19.57
2018-06-10T21:39:55.841Z,20.80
2018-06-10T21:42:25.729Z,19.77
2018-06-10T21:47:55.826Z,21.77
2018-06-10T21:50:26.294Z,20.10
2018-06-10T21:52:56.706Z,21.27
2018-06-10T21:55:28.017Z,23.40
2018-06-10T22:01:07.659Z,22.27
2018-06-10T22:03:37.732Z,21.00
2018-06-10T22:06:21.777Z,21.50
2018-06-10T22:11:40.448Z,23.07
2018-06-10T22:14:32.396Z,23.83
2018-06-10T22:17:02.532Z,22.00
2018-06-10T22:19:52.457Z,22.20
2018-06-10T22:22:22.700Z,22.80
2018-06-10T22:25:08.696Z,22.17
2018-06-10T22:27:38.971Z,22.87
2018-06-10T22:30:08.952Z,22.77
2018-06-10T22:32:38.732Z,23.90
2018-06-10T22:35:08.719Z,24.30
2018-06-10T22:37:38.898Z,23.47
2018-06-10T22:40:08.971Z,25.07
2018-06-10T22:42:39.015Z,24.57
2018-06-10T22:48:46.480Z,23.53
2018-06-10T22:57:29.776Z,24.60
2018-06-10T23:00:24.080Z,24.50
2018-06-10T23:02:54.210Z,24.70
2018-06-10T23:05:24.379Z,26.23
2018-06-10T23:07:59.410Z,24.90
2018-06-10T23:10:29.247Z,22.47
2018-06-10T23:12:59.181Z,26.27
2018-06-10T23:15:29.033Z,25.60
2018-06-10T23:17:59.068Z,24.30
2018-06-10T23:20:29.179Z,25.10
2018-06-10T23:22:59.285Z,25.43
2018-06-10T23:25:29.092Z,24.70
2018-06-10T23:27:59.185Z,25.87
2018-06-10T23:30:29.062Z,27.73
2018-06-10T23:32:58.930Z,25.77
2018-06-10T23:35:28.784Z,26.43
2018-06-10T23:37:58.651Z,24.27
2018-06-10T23:40:28.508Z,25.53
2018-06-10T23:42:58.435Z,26.13
2018-06-10T23:45:28.368Z,26.63
2018-06-10T23:47:58.372Z,27.00
2018-06-10T23:50:28.299Z,27.00
2018-06-10T23:53:00.049Z,26.27
2018-06-10T23:55:30.082Z,27.87
2018-06-10T23:58:00.391Z,26.27
